Time;durP1;ratioP1;P1;durP2;ratioP2;P2;SDS_P1;SDS_P2;PMS_P1;PMS_P2;Temp;Humidity;BMP_temperature;BMP_pressure;BME280_temperature;BME280_humidity;BME280_pressure;Samples;Min_cycle;Max_cycle;Signal;HPM_P1;HPM_P2
2021/11/08 00:01:04;;;;;;;18.73;13.82;;;9.70;90.40;;;;;;5032248;28;20036;-52
2021/11/08 00:03:34;;;;;;;17.40;13.20;;;9.70;89.80;;;;;;5032123;28;20529;-51
2021/11/08 00:06:04;;;;;;;15.30;12.57;;;9.70;87.30;;;;;;5032599;28;20041;-48
2021/11/08 00:08:32;;;;;;;16.38;12.73;;;9.70;85.60;;;;;;5032057;28;20041;-50
2021/11/08 00:10:59;;;;;;;19.02;13.88;;;9.70;83.70;;;;;;5031877;28;20033;-50
2021/11/08 00:13:26;;;;;;;17.23;12.65;;;9.70;81.90;;;;;;5031977;28;20379;-52
2021/11/08 00:21:03;;;;;;;19.60;13.68;;;9.70;78.40;;;;;;5031976;28;20034;-53
2021/11/08 00:23:30;;;;;;;18.40;12.98;;;9.70;78.00;;;;;;5032785;28;20052;-53
2021/11/08 00:25:57;;;;;;;17.08;13.32;;;9.70;77.80;;;;;;5032015;28;20033;-52
2021/11/08 00:28:25;;;;;;;16.00;12.35;;;9.70;77.90;;;;;;5031986;28;20029;-53
2021/11/08 00:30:53;;;;;;;19.00;13.18;;;9.70;77.60;;;;;;5031600;28;20400;-50
2021/11/08 00:33:21;;;;;;;17.67;12.70;;;9.70;77.20;;;;;;5031938;28;20515;-52
2021/11/08 00:35:54;;;;;;;16.00;12.05;;;9.70;76.60;;;;;;5031692;28;20046;-51
2021/11/08 00:38:22;;;;;;;18.35;12.10;;;9.70;76.20;;;;;;5032240;28;20030;-54
2021/11/08 00:40:48;;;;;;;13.48;10.20;;;9.70;75.70;;;;;;5031970;28;20501;-51
2021/11/08 00:43:16;;;;;;;16.50;11.90;;;9.80;75.00;;;;;;5033168;28;20513;-49
2021/11/08 00:45:43;;;;;;;16.27;12.05;;;9.80;74.80;;;;;;5034740;28;20033;-51
2021/11/08 00:48:09;;;;;;;16.75;11.98;;;9.80;75.10;;;;;;5035305;28;20025;-51
2021/11/08 00:50:37;;;;;;;16.50;11.02;;;9.80;75.50;;;;;;5034927;28;20041;-48
2021/11/08 00:53:05;;;;;;;16.13;10.13;;;9.80;76.00;;;;;;5033765;28;20037;-47
2021/11/08 00:55:33;;;;;;;14.55;10.95;;;9.80;76.00;;;;;;5035163;28;20045;-49
2021/11/08 00:58:01;;;;;;;15.57;11.15;;;9.80;76.00;;;;;;5034747;28;20466;-48
2021/11/08 01:00:31;;;;;;;15.85;11.20;;;9.80;77.00;;;;;;5035064;28;20487;-49
2021/11/08 01:03:19;;;;;;;14.25;9.70;;;9.80;78.10;;;;;;5034764;28;20033;-51
2021/11/08 01:05:46;;;;;;;15.38;9.93;;;9.80;78.50;;;;;;5034816;28;20027;-52
2021/11/08 01:08:12;;;;;;;17.27;10.63;;;9.70;78.50;;;;;;5034324;28;20045;-50
2021/11/08 01:10:39;;;;;;;12.50;9.40;;;9.70;79.80;;;;;;5034371;28;20057;-51
2021/11/08 01:13:05;;;;;;;13.85;9.90;;;9.70;80.10;;;;;;5034776;28;20397;-50
2021/11/08 01:15:32;;;;;;;15.77;11.27;;;9.70;80.10;;;;;;5034246;28;20045;-47
2021/11/08 01:17:59;;;;;;;14.00;11.05;;;9.70;80.20;;;;;;5034613;28;20041;-47
2021/11/08 01:20:32;;;;;;;14.27;10.15;;;9.70;79.50;;;;;;5034955;28;20041;-53
2021/11/08 01:23:00;;;;;;;14.38;10.70;;;9.70;79.60;;;;;;5034607;28;20029;-53
2021/11/08 01:25:27;;;;;;;14.38;10.80;;;9.70;80.90;;;;;;5034619;28;20041;-49
2021/11/08 01:27:56;;;;;;;13.63;10.23;;;9.70;81.00;;;;;;5034820;28;20053;-50
2021/11/08 01:30:25;;;;;;;15.65;11.32;;;9.80;81.60;;;;;;5034226;28;20033;-47
2021/11/08 01:32:58;;;;;;;17.05;10.60;;;9.70;81.50;;;;;;5034537;28;20037;-51
2021/11/08 01:35:38;;;;;;;13.10;10.25;;;9.70;82.00;;;;;;5033591;28;20050;-54
2021/11/08 01:38:08;;;;;;;14.88;11.60;;;9.70;82.90;;;;;;5033079;28;20029;-50
2021/11/08 01:40:36;;;;;;;15.85;11.02;;;9.70;83.10;;;;;;5033686;28;20049;-53
2021/11/08 01:43:04;;;;;;;16.35;11.68;;;9.70;83.70;;;;;;5034405;28;20091;-49
2021/11/08 01:45:31;;;;;;;15.63;12.07;;;9.70;84.20;;;;;;5034323;28;20042;-53
2021/11/08 01:47:58;;;;;;;16.15;13.02;;;9.70;84.70;;;;;;5034199;28;20060;-53
2021/11/08 01:50:26;;;;;;;17.63;12.32;;;9.60;85.30;;;;;;5033774;28;20041;-47
2021/11/08 01:52:53;;;;;;;14.52;11.52;;;9.60;85.80;;;;;;5034014;28;20045;-50
2021/11/08 01:55:21;;;;;;;16.25;12.63;;;9.60;86.70;;;;;;5033871;28;20026;-52
2021/11/08 01:57:49;;;;;;;16.13;12.45;;;9.60;87.10;;;;;;5033824;28;20044;-52
2021/11/08 02:00:18;;;;;;;17.02;12.35;;;9.60;87.00;;;;;;5033883;28;20096;-56
2021/11/08 02:02:45;;;;;;;16.73;12.13;;;9.60;87.20;;;;;;5033604;28;20056;-48
2021/11/08 02:05:12;;;;;;;16.38;11.60;;;9.60;87.10;;;;;;5049035;28;20026;-49
2021/11/08 02:07:39;;;;;;;20.67;13.27;;;9.50;87.10;;;;;;5033629;28;20040;-54
2021/11/08 02:10:08;;;;;;;15.80;12.65;;;9.50;87.00;;;;;;5033541;28;20038;-53
2021/11/08 02:12:35;;;;;;;18.52;13.75;;;9.50;87.10;;;;;;5033005;28;20056;-52
2021/11/08 02:15:07;;;;;;;18.95;13.50;;;9.50;86.90;;;;;;5033590;28;20037;-49
2021/11/08 02:17:34;;;;;;;18.65;13.15;;;9.50;86.80;;;;;;5033106;28;20037;-51
2021/11/08 02:20:20;;;;;;;19.23;15.02;;;9.50;86.90;;;;;;5033517;28;20503;-50
2021/11/08 02:22:52;;;;;;;15.52;11.65;;;9.50;87.20;;;;;;5032024;28;20025;-48
2021/11/08 02:25:21;;;;;;;17.85;13.75;;;9.50;87.30;;;;;;5033457;28;20038;-51
2021/11/08 02:27:49;;;;;;;17.77;13.70;;;9.40;87.60;;;;;;5032805;28;20033;-52
2021/11/08 02:30:17;;;;;;;17.92;13.13;;;9.40;88.20;;;;;;5033357;28;20378;-52
2021/11/08 02:32:44;;;;;;;17.27;13.77;;;9.40;88.60;;;;;;5032880;28;20021;-49
2021/11/08 02:35:14;;;;;;;17.55;13.20;;;9.40;88.60;;;;;;5033205;28;20488;-48
2021/11/08 02:37:40;;;;;;;14.88;11.10;;;9.40;88.50;;;;;;5032797;28;20056;-49
2021/11/08 02:40:17;;;;;;;16.20;13.15;;;9.40;88.10;;;;;;5033320;28;20041;-49
2021/11/08 02:42:44;;;;;;;20.15;12.88;;;9.40;87.90;;;;;;5032791;28;20041;-53
2021/11/08 02:45:10;;;;;;;17.35;12.52;;;9.40;88.00;;;;;;5033158;28;20041;-54
2021/11/08 02:47:43;;;;;;;15.15;12.38;;;9.40;88.20;;;;;;5033012;28;20033;-50
2021/11/08 02:50:10;;;;;;;17.65;12.93;;;9.40;88.50;;;;;;5031588;28;20048;-50
2021/11/08 02:52:37;;;;;;;19.35;13.05;;;9.40;89.00;;;;;;5032968;28;20033;-51
2021/11/08 02:55:05;;;;;;;16.25;12.70;;;9.30;89.40;;;;;;5032542;28;20033;-48
2021/11/08 02:57:35;;;;;;;23.13;16.33;;;9.30;90.00;;;;;;5033284;28;20030;-53
2021/11/08 03:00:05;;;;;;;16.50;11.40;;;9.30;90.10;;;;;;5032456;28;20033;-52
2021/11/08 03:02:35;;;;;;;19.35;13.90;;;9.30;90.40;;;;;;5032793;28;20042;-50
2021/11/08 03:05:02;;;;;;;18.25;14.43;;;9.30;90.60;;;;;;5032038;28;20033;-50
2021/11/08 03:07:31;;;;;;;18.33;12.57;;;9.30;90.50;;;;;;5031658;28;20033;-49
2021/11/08 03:10:02;;;;;;;16.52;13.52;;;9.30;90.50;;;;;;5032513;28;20037;-49
2021/11/08 03:12:32;;;;;;;17.27;12.98;;;9.20;90.50;;;;;;5031537;28;20398;-50
2021/11/08 03:15:08;;;;;;;16.30;12.70;;;9.20;90.50;;;;;;5032524;28;20038;-50
2021/11/08 03:17:41;;;;;;;17.35;11.43;;;9.20;90.00;;;;;;5032775;28;20260;-48
2021/11/08 03:20:10;;;;;;;16.13;12.02;;;9.20;88.60;;;;;;5031854;28;20049;-48
2021/11/08 03:22:40;;;;;;;16.27;12.70;;;9.10;87.10;;;;;;5031648;28;20040;-49
2021/11/08 03:30:10;;;;;;;15.25;11.80;;;9.10;81.20;;;;;;5032391;28;20474;-50
2021/11/08 03:32:38;;;;;;;15.15;11.80;;;9.10;80.20;;;;;;5032163;28;20025;-53
2021/11/08 03:35:06;;;;;;;18.60;11.98;;;9.10;79.80;;;;;;5031502;28;20060;-52
2021/11/08 03:37:38;;;;;;;15.20;11.52;;;9.20;79.50;;;;;;5032321;28;20044;-53
2021/11/08 03:40:23;;;;;;;14.18;10.35;;;9.20;79.40;;;;;;5032422;28;20033;-50
2021/11/08 03:42:54;;;;;;;14.43;11.48;;;9.20;77.00;;;;;;5032031;28;20037;-52
2021/11/08 03:45:22;;;;;;;16.63;11.88;;;9.20;76.30;;;;;;5032624;28;20417;-51
2021/11/08 03:47:50;;;;;;;13.88;9.95;;;9.20;75.90;;;;;;5032010;28;20041;-49
2021/11/08 03:50:19;;;;;;;14.32;11.27;;;9.30;76.40;;;;;;5032229;28;20041;-52
2021/11/08 03:52:46;;;;;;;12.88;10.32;;;9.30;75.90;;;;;;5032052;28;20040;-53
2021/11/08 03:55:12;;;;;;;16.88;10.85;;;9.30;75.60;;;;;;5031847;28;20038;-52
2021/11/08 03:57:39;;;;;;;14.30;10.95;;;9.30;76.90;;;;;;5031949;28;20485;-48
2021/11/08 04:00:10;;;;;;;14.32;10.93;;;9.30;76.90;;;;;;5032660;28;20048;-53
2021/11/08 04:02:40;;;;;;;17.08;11.27;;;9.20;78.00;;;;;;5032203;28;20033;-52
2021/11/08 04:05:08;;;;;;;16.20;11.60;;;9.30;79.20;;;;;;5032261;28;20025;-50
2021/11/08 04:07:35;;;;;;;16.85;12.02;;;9.20;78.60;;;;;;5032209;28;20049;-50
2021/11/08 04:10:03;;;;;;;17.48;12.10;;;9.20;79.00;;;;;;5031863;28;20042;-52
2021/11/08 04:12:30;;;;;;;15.77;12.15;;;9.20;79.90;;;;;;5031936;28;20062;-52
2021/11/08 04:14:56;;;;;;;15.25;11.95;;;9.20;80.30;;;;;;5031826;28;20029;-49
2021/11/08 04:17:25;;;;;;;18.63;12.10;;;9.20;81.00;;;;;;5034251;28;20041;-49
2021/11/08 04:19:53;;;;;;;17.73;13.15;;;9.20;82.30;;;;;;5035648;28;20033;-46
2021/11/08 04:22:20;;;;;;;16.17;12.10;;;9.10;84.90;;;;;;5035792;28;20381;-47
2021/11/08 04:24:47;;;;;;;15.43;12.65;;;9.10;87.50;;;;;;5035288;28;20040;-47
2021/11/08 04:27:15;;;;;;;17.42;13.63;;;9.00;89.60;;;;;;5035670;28;20037;-46
2021/11/08 04:29:42;;;;;;;17.98;14.00;;;9.00;90.40;;;;;;5035431;28;20042;-50
2021/11/08 04:32:09;;;;;;;18.42;13.68;;;8.90;90.60;;;;;;5035598;28;20033;-49
2021/11/08 04:34:53;;;;;;;19.00;12.85;;;8.90;90.80;;;;;;5033797;28;20034;-53
2021/11/08 04:45:15;;;;;;;16.92;13.40;;;8.80;91.90;;;;;;5035520;28;20052;-48
2021/11/08 04:53:32;;;;;;;14.23;12.10;;;8.60;92.20;;;;;;5030061;28;20077;-50
2021/11/08 04:56:32;;;;;;;16.15;12.23;;;8.70;92.10;;;;;;5034822;28;20038;-49
2021/11/08 05:21:18;;;;;;;16.48;12.82;;;8.50;85.30;;;;;;5034820;28;20045;-51
2021/11/08 05:31:44;;;;;;;16.50;13.00;;;8.30;85.90;;;;;;5034515;28;20041;-48
2021/11/08 05:34:12;;;;;;;18.77;14.47;;;8.40;85.60;;;;;;5033333;28;20075;-52
2021/11/08 05:36:38;;;;;;;20.17;14.82;;;8.40;84.60;;;;;;5034602;28;20037;-48
2021/11/08 05:39:05;;;;;;;18.63;13.50;;;8.40;84.20;;;;;;5034280;28;20041;-50
2021/11/08 05:41:34;;;;;;;20.45;14.65;;;8.30;84.20;;;;;;5033867;28;20051;-51
2021/11/08 05:44:03;;;;;;;18.30;13.90;;;8.30;84.80;;;;;;5032649;28;20048;-48
2021/11/08 05:46:31;;;;;;;20.15;14.35;;;8.30;85.40;;;;;;5034580;28;20355;-47
2021/11/08 05:48:58;;;;;;;18.02;14.32;;;8.40;85.70;;;;;;5034274;28;20044;-50
2021/11/08 05:51:25;;;;;;;20.75;15.80;;;8.30;86.00;;;;;;5033779;28;20041;-54
2021/11/08 05:53:51;;;;;;;19.80;14.27;;;8.30;87.10;;;;;;5034163;28;20033;-47
2021/11/08 05:56:33;;;;;;;17.77;14.40;;;8.30;87.10;;;;;;5033797;28;20025;-47
2021/11/08 06:51:00;;;;;;;15.40;10.88;;;7.90;90.80;;;;;;5053146;28;20036;-52
2021/11/08 06:53:30;;;;;;;19.08;11.82;;;7.90;91.00;;;;;;5052533;28;20071;-51
2021/11/08 06:55:58;;;;;;;16.00;11.85;;;7.90;91.10;;;;;;5052776;28;20029;-51
2021/11/08 06:58:27;;;;;;;16.35;12.02;;;7.90;91.10;;;;;;5052594;28;20033;-51
2021/11/08 07:00:55;;;;;;;17.90;13.25;;;7.90;90.90;;;;;;5052801;28;20029;-53
2021/11/08 07:03:22;;;;;;;24.08;13.95;;;7.90;91.10;;;;;;5052060;28;20507;-51
2021/11/08 07:05:49;;;;;;;19.73;13.77;;;7.90;90.90;;;;;;5051466;28;20033;-53
2021/11/08 07:08:16;;;;;;;20.90;14.32;;;8.00;90.80;;;;;;5047193;28;20029;-55
2021/11/08 07:10:42;;;;;;;16.98;14.48;;;8.00;90.90;;;;;;5034855;28;20034;-53
2021/11/08 07:13:09;;;;;;;17.67;14.20;;;8.00;90.70;;;;;;5039599;28;20045;-53
2021/11/08 07:15:35;;;;;;;16.98;13.90;;;8.00;90.10;;;;;;5033472;28;20036;-59
2021/11/08 07:18:02;;;;;;;19.77;14.52;;;7.90;90.40;;;;;;5031421;28;20044;-52
2021/11/08 07:20:29;;;;;;;16.40;13.13;;;7.90;91.00;;;;;;5038339;28;20032;-48
2021/11/08 07:22:55;;;;;;;24.50;14.18;;;7.90;91.30;;;;;;5040291;28;20029;-52
2021/11/08 07:25:24;;;;;;;15.07;12.35;;;7.90;91.00;;;;;;5035063;28;20045;-50
2021/11/08 07:27:50;;;;;;;17.95;12.55;;;7.80;90.80;;;;;;5037657;28;20037;-51
2021/11/08 07:30:17;;;;;;;16.63;12.10;;;7.70;90.90;;;;;;5031754;28;20042;-54
2021/11/08 07:32:43;;;;;;;17.80;13.27;;;7.70;90.80;;;;;;5036034;28;20486;-48
2021/11/08 07:35:10;;;;;;;17.67;13.27;;;7.70;90.70;;;;;;5034957;28;20497;-51
2021/11/08 07:37:36;;;;;;;17.35;12.95;;;7.70;90.20;;;;;;5034389;28;20033;-51
2021/11/08 07:40:03;;;;;;;14.38;11.02;;;7.60;89.50;;;;;;5041274;28;20033;-53
2021/11/08 07:42:30;;;;;;;15.48;10.50;;;7.60;88.30;;;;;;5032871;28;20026;-50
2021/11/08 07:44:56;;;;;;;14.88;11.15;;;7.60;87.70;;;;;;5036399;28;20030;-55
2021/11/08 07:47:23;;;;;;;15.93;11.23;;;7.60;87.60;;;;;;5033834;28;20481;-48
2021/11/08 07:49:49;;;;;;;15.95;11.60;;;7.60;87.60;;;;;;5033607;28;20556;-52
2021/11/08 07:52:16;;;;;;;15.98;10.85;;;7.60;86.70;;;;;;5033510;28;20397;-56
2021/11/08 07:54:42;;;;;;;14.88;11.02;;;7.60;86.60;;;;;;5037722;28;20381;-58
2021/11/08 07:57:09;;;;;;;17.17;13.73;;;7.60;86.10;;;;;;5037785;28;20018;-58
2021/11/08 07:59:36;;;;;;;19.98;13.73;;;7.70;85.70;;;;;;5037469;28;20528;-58
2021/11/08 08:02:03;;;;;;;18.02;14.10;;;7.70;85.50;;;;;;5037987;28;20484;-59
2021/11/08 08:04:29;;;;;;;19.85;13.93;;;7.70;85.20;;;;;;5038756;28;20079;-58
2021/11/08 08:06:56;;;;;;;17.13;14.43;;;7.80;84.90;;;;;;5034178;28;20037;-58
2021/11/08 08:09:22;;;;;;;16.45;13.02;;;7.80;84.40;;;;;;5035999;28;20025;-59
2021/11/08 08:11:49;;;;;;;18.98;14.00;;;7.90;84.20;;;;;;5039610;28;20482;-58
2021/11/08 08:14:17;;;;;;;18.48;14.20;;;7.90;84.10;;;;;;5035050;28;20049;-53
2021/11/08 08:17:02;;;;;;;18.35;14.15;;;8.00;84.00;;;;;;5035791;28;20474;-57
2021/11/08 08:19:29;;;;;;;18.33;14.13;;;8.00;84.30;;;;;;5035054;28;20041;-53
2021/11/08 08:21:55;;;;;;;19.63;14.32;;;8.10;84.70;;;;;;5035566;28;20033;-56
2021/11/08 08:24:22;;;;;;;18.85;14.63;;;8.10;83.80;;;;;;5035239;28;20030;-52
2021/11/08 08:26:48;;;;;;;20.75;14.20;;;8.20;83.10;;;;;;5034414;28;20030;-55
2021/11/08 08:29:15;;;;;;;19.98;15.80;;;8.20;83.10;;;;;;5034912;28;20054;-57
2021/11/08 08:31:44;;;;;;;19.40;14.75;;;8.20;83.70;;;;;;5035368;28;20505;-57
2021/11/08 08:34:12;;;;;;;18.73;13.20;;;8.30;84.00;;;;;;5035170;28;20029;-59
2021/11/08 08:36:40;;;;;;;18.80;15.23;;;8.30;82.90;;;;;;5035343;28;20034;-58
2021/11/08 08:39:09;;;;;;;22.10;14.23;;;8.30;83.20;;;;;;5035029;28;20477;-58
2021/11/08 08:41:36;;;;;;;19.35;15.65;;;8.40;84.10;;;;;;5035037;28;20496;-59
2021/11/08 08:44:03;;;;;;;16.88;14.18;;;8.40;84.90;;;;;;5035221;28;20041;-57
2021/11/08 08:46:30;;;;;;;21.40;15.77;;;8.40;84.70;;;;;;5035269;28;20037;-58
2021/11/08 08:48:59;;;;;;;22.15;15.63;;;8.40;85.20;;;;;;5035018;28;20029;-57
2021/11/08 08:51:25;;;;;;;26.92;16.65;;;8.40;86.20;;;;;;5033682;28;20056;-56
2021/11/08 08:53:52;;;;;;;24.00;17.75;;;8.40;86.10;;;;;;5035078;28;20033;-55
2021/11/08 08:56:20;;;;;;;21.60;16.90;;;8.40;86.70;;;;;;5035839;28;20042;-58
2021/11/08 08:58:47;;;;;;;23.00;16.75;;;8.50;87.20;;;;;;5035213;28;20025;-59
2021/11/08 09:01:13;;;;;;;24.30;16.35;;;8.50;87.80;;;;;;5034790;28;20038;-59
2021/11/08 09:03:40;;;;;;;24.58;16.25;;;8.50;87.10;;;;;;5033859;28;20032;-59
2021/11/08 09:06:07;;;;;;;19.08;14.88;;;8.50;87.10;;;;;;5034543;28;20033;-57
2021/11/08 09:08:35;;;;;;;26.75;16.52;;;8.50;86.70;;;;;;5033987;28;20041;-56
2021/11/08 09:11:02;;;;;;;18.98;15.57;;;8.60;87.20;;;;;;5033128;28;20048;-55
2021/11/08 09:13:28;;;;;;;23.33;16.15;;;8.70;87.60;;;;;;5034817;28;20056;-56
2021/11/08 09:15:55;;;;;;;25.70;16.25;;;8.70;87.30;;;;;;5034977;28;20033;-58
2021/11/08 09:18:22;;;;;;;23.38;15.63;;;8.80;87.20;;;;;;5033283;28;20524;-58
2021/11/08 09:20:49;;;;;;;28.70;17.23;;;8.80;87.30;;;;;;5034174;28;20036;-58
2021/11/08 09:23:17;;;;;;;20.92;16.30;;;8.90;87.60;;;;;;5042451;28;20040;-56
2021/11/08 09:25:44;;;;;;;23.42;16.40;;;8.90;87.80;;;;;;5054430;28;20045;-53
2021/11/08 09:28:11;;;;;;;23.95;16.77;;;9.00;87.10;;;;;;5054377;28;20021;-52
2021/11/08 09:30:41;;;;;;;22.17;17.08;;;9.00;86.60;;;;;;5054488;28;20063;-55
2021/11/08 09:33:09;;;;;;;18.63;12.13;;;9.10;85.80;;;;;;5053031;28;20036;-57
2021/11/08 09:35:37;;;;;;;19.98;15.10;;;9.20;82.80;;;;;;5054462;28;20033;-58
2021/11/08 09:38:06;;;;;;;21.83;15.18;;;9.30;81.10;;;;;;5053058;28;20032;-58
2021/11/08 09:40:34;;;;;;;20.75;15.07;;;9.40;79.40;;;;;;5053955;28;20033;-57
2021/11/08 09:43:02;;;;;;;23.02;15.15;;;9.40;78.50;;;;;;5052955;28;20373;-53
2021/11/08 09:45:28;;;;;;;19.83;14.93;;;9.50;78.00;;;;;;5054321;28;20033;-58
2021/11/08 09:47:56;;;;;;;19.52;14.15;;;9.50;77.30;;;;;;5043865;28;20397;-59
2021/11/08 09:50:26;;;;;;;19.85;14.57;;;9.60;77.60;;;;;;5034377;28;20386;-53
2021/11/08 09:52:53;;;;;;;19.23;14.15;;;9.70;77.40;;;;;;5033278;28;20021;-55
2021/11/08 09:55:23;;;;;;;22.08;15.95;;;9.70;77.30;;;;;;5033961;28;20029;-53
2021/11/08 09:57:53;;;;;;;19.08;14.52;;;9.70;76.90;;;;;;5034002;28;20366;-52
2021/11/08 10:00:43;;;;;;;23.70;16.50;;;9.80;75.30;;;;;;5033349;28;20060;-58
2021/11/08 10:03:15;;;;;;;20.60;15.02;;;9.80;73.40;;;;;;5033627;28;20398;-59
2021/11/08 10:05:47;;;;;;;21.23;15.82;;;9.90;72.70;;;;;;5032855;28;20026;-59
2021/11/08 10:08:16;;;;;;;22.30;15.82;;;9.90;74.00;;;;;;5033480;28;20036;-59
2021/11/08 10:10:43;;;;;;;24.52;16.20;;;9.90;74.30;;;;;;5032893;28;20048;-59
2021/11/08 10:13:12;;;;;;;21.60;16.75;;;9.90;74.50;;;;;;5032422;28;20057;-57
2021/11/08 10:15:42;;;;;;;20.75;16.08;;;10.00;74.60;;;;;;5033611;28;20029;-59
2021/11/08 10:18:09;;;;;;;22.00;17.35;;;10.00;73.70;;;;;;5032506;28;20493;-59
2021/11/08 10:20:46;;;;;;;24.88;17.05;;;10.00;73.60;;;;;;5038661;28;20404;-57
2021/11/08 10:23:22;;;;;;;18.42;13.40;;;10.10;73.30;;;;;;5044934;28;20049;-55
2021/11/08 10:25:49;;;;;;;21.05;14.93;;;10.10;72.60;;;;;;5041197;28;20040;-52
2021/11/08 10:28:23;;;;;;;30.50;17.70;;;10.10;72.50;;;;;;5013731;28;20050;-51
2021/11/08 10:31:12;;;;;;;26.15;18.85;;;10.20;73.20;;;;;;5032524;28;20397;-49
2021/11/08 10:33:40;;;;;;;23.25;15.93;;;10.30;72.90;;;;;;5033354;28;20026;-50
2021/11/08 10:36:14;;;;;;;24.55;16.00;;;10.20;72.90;;;;;;5033251;28;20056;-52
2021/11/08 10:38:43;;;;;;;21.70;15.43;;;10.30;72.70;;;;;;5032881;28;20100;-53
2021/11/08 10:41:25;;;;;;;21.42;15.48;;;10.30;72.80;;;;;;5031649;28;20034;-49
2021/11/08 10:43:58;;;;;;;18.48;14.57;;;10.40;72.90;;;;;;5033053;28;20370;-49
2021/11/08 10:46:32;;;;;;;23.10;14.48;;;10.30;72.20;;;;;;5032423;28;20029;-53
2021/11/08 10:49:07;;;;;;;18.33;13.90;;;10.40;72.50;;;;;;5033556;28;20040;-49
2021/11/08 10:51:36;;;;;;;21.17;14.40;;;10.40;72.50;;;;;;5034063;28;20512;-47
2021/11/08 10:54:16;;;;;;;20.42;13.77;;;10.40;72.10;;;;;;5033030;28;20045;-51
2021/11/08 10:56:53;;;;;;;17.40;14.27;;;10.50;72.10;;;;;;5032478;28;20056;-51
2021/11/08 10:59:21;;;;;;;19.45;15.10;;;10.50;71.90;;;;;;5032672;28;20381;-49
2021/11/08 11:01:53;;;;;;;19.15;15.55;;;10.50;71.90;;;;;;5032507;28;20040;-51
2021/11/08 11:04:45;;;;;;;22.27;16.35;;;10.50;73.00;;;;;;5032634;28;20042;-52
2021/11/08 11:07:20;;;;;;;40.80;29.63;;;10.60;72.80;;;;;;5032229;28;20033;-50
2021/11/08 11:09:48;;;;;;;32.20;23.85;;;10.70;75.70;;;;;;5035627;28;20033;-52
2021/11/08 11:12:18;;;;;;;26.70;18.00;;;10.80;74.80;;;;;;5032009;28;20038;-56
2021/11/08 11:14:57;;;;;;;21.85;16.33;;;10.80;74.20;;;;;;5033433;28;20033;-56
2021/11/08 11:17:27;;;;;;;21.63;16.33;;;10.80;74.80;;;;;;5050762;28;20025;-58
2021/11/08 11:20:05;;;;;;;20.08;15.75;;;10.90;74.80;;;;;;5052085;28;20051;-57
2021/11/08 11:22:34;;;;;;;19.95;14.30;;;11.00;74.20;;;;;;5046773;28;20056;-58
2021/11/08 11:25:04;;;;;;;20.23;16.02;;;11.00;74.00;;;;;;5032503;28;20053;-57
2021/11/08 11:27:35;;;;;;;18.75;14.77;;;11.00;73.40;;;;;;5032204;28;20029;-57
2021/11/08 11:30:13;;;;;;;19.90;15.52;;;11.00;73.70;;;;;;5032091;28;20060;-56
2021/11/08 11:32:40;;;;;;;20.20;15.52;;;10.90;74.00;;;;;;5032271;28;20481;-57
2021/11/08 11:35:20;;;;;;;19.10;15.52;;;11.00;74.70;;;;;;5032136;28;20052;-56
2021/11/08 11:38:01;;;;;;;20.60;15.07;;;10.90;73.50;;;;;;5032353;28;20045;-59
2021/11/08 11:40:30;;;;;;;23.35;16.23;;;10.90;73.50;;;;;;5030234;28;20038;-58
2021/11/08 11:43:00;;;;;;;22.05;14.77;;;10.80;74.50;;;;;;5032570;28;20032;-60
2021/11/08 11:45:29;;;;;;;25.27;16.67;;;10.80;75.80;;;;;;5031967;28;20486;-58
2021/11/08 11:48:01;;;;;;;21.00;16.00;;;10.80;76.30;;;;;;5032421;28;20143;-60
2021/11/08 11:50:33;;;;;;;21.45;16.08;;;10.80;76.00;;;;;;5032011;28;20033;-55
2021/11/08 11:53:01;;;;;;;19.38;15.48;;;10.80;77.00;;;;;;5032149;28;20042;-54
2021/11/08 11:55:29;;;;;;;19.65;15.30;;;10.80;78.70;;;;;;5031965;28;20053;-57
2021/11/08 11:58:00;;;;;;;19.88;16.50;;;10.80;80.10;;;;;;5040187;28;20482;-54
2021/11/08 12:00:38;;;;;;;19.23;15.73;;;10.80;79.90;;;;;;5031866;28;20034;-58
2021/11/08 12:03:06;;;;;;;23.23;16.98;;;10.90;80.90;;;;;;5038523;28;20056;-55
2021/11/08 12:05:34;;;;;;;20.50;16.50;;;10.90;80.80;;;;;;5031953;28;20033;-49
2021/11/08 12:08:06;;;;;;;19.60;15.43;;;10.80;80.20;;;;;;5030292;28;20030;-56
2021/11/08 12:10:32;;;;;;;21.73;16.67;;;10.90;80.70;;;;;;5029883;28;20474;-52
2021/11/08 12:12:59;;;;;;;21.90;16.75;;;10.90;80.90;;;;;;5031620;28;20046;-52
2021/11/08 12:15:32;;;;;;;21.15;17.85;;;10.90;80.40;;;;;;5032138;28;20052;-52
2021/11/08 12:18:08;;;;;;;20.25;16.50;;;10.90;80.10;;;;;;5031607;28;20119;-52
2021/11/08 12:20:43;;;;;;;26.05;18.48;;;10.90;80.40;;;;;;5032317;28;20044;-51
2021/11/08 12:23:36;;;;;;;21.42;17.63;;;11.00;80.60;;;;;;5031809;28;20037;-53
2021/11/08 12:26:03;;;;;;;24.58;17.83;;;11.10;78.90;;;;;;5031678;28;20056;-50
2021/11/08 12:28:30;;;;;;;24.00;16.88;;;11.10;78.80;;;;;;5039036;28;20372;-52
2021/11/08 12:31:06;;;;;;;19.98;16.05;;;11.10;78.70;;;;;;5051593;28;20048;-54
2021/11/08 12:33:34;;;;;;;20.58;17.00;;;11.30;76.60;;;;;;5051700;28;20036;-53
2021/11/08 12:36:06;;;;;;;18.05;15.20;;;11.30;76.00;;;;;;5051794;28;20040;-52
2021/11/08 12:38:35;;;;;;;25.17;17.92;;;11.50;75.60;;;;;;5053947;28;20028;-49
2021/11/08 12:41:27;;;;;;;20.13;15.25;;;11.60;74.80;;;;;;5045895;28;20458;-51
2021/11/08 12:43:57;;;;;;;19.77;16.73;;;11.60;73.60;;;;;;5035282;28;20029;-52
2021/11/08 12:46:27;;;;;;;22.77;17.13;;;11.60;73.20;;;;;;5035346;28;20045;-51
2021/11/08 12:49:09;;;;;;;23.40;17.20;;;11.60;73.80;;;;;;5034956;28;20438;-53
2021/11/08 12:51:37;;;;;;;23.73;17.60;;;11.40;73.20;;;;;;5035264;28;20041;-53
2021/11/08 12:54:10;;;;;;;20.13;15.77;;;11.40;73.50;;;;;;5034776;28;20025;-52
2021/11/08 12:56:45;;;;;;;21.10;15.50;;;11.40;74.30;;;;;;5035299;28;20389;-48
2021/11/08 12:59:21;;;;;;;22.38;16.23;;;11.40;75.90;;;;;;5034984;28;20048;-52
2021/11/08 13:01:54;;;;;;;24.48;17.75;;;11.30;74.80;;;;;;5034460;28;20049;-48
2021/11/08 13:04:32;;;;;;;20.02;14.75;;;11.30;75.20;;;;;;5035034;28;20037;-48
2021/11/08 13:07:10;;;;;;;20.15;15.15;;;11.40;75.90;;;;;;5034622;28;20056;-53
2021/11/08 13:09:44;;;;;;;21.73;14.52;;;11.40;74.70;;;;;;5034370;28;20465;-52
2021/11/08 13:12:17;;;;;;;23.02;16.77;;;11.60;73.40;;;;;;5033206;28;20037;-54
2021/11/08 13:14:49;;;;;;;19.77;14.38;;;11.70;72.00;;;;;;5034847;28;20041;-56
2021/11/08 13:17:21;;;;;;;21.83;14.07;;;11.70;68.90;;;;;;5034833;28;20038;-52
2021/11/08 13:19:55;;;;;;;20.50;14.57;;;11.70;68.70;;;;;;5034469;28;20481;-57
2021/11/08 13:22:26;;;;;;;19.90;14.85;;;11.70;68.90;;;;;;5035485;28;20489;-52
2021/11/08 13:25:06;;;;;;;22.23;15.00;;;11.70;70.00;;;;;;5034355;28;20045;-55
2021/11/08 13:27:33;;;;;;;20.80;14.73;;;11.70;69.80;;;;;;5016665;28;20386;-53
2021/11/08 13:30:04;;;;;;;19.58;14.63;;;11.80;69.60;;;;;;5034277;28;20037;-54
2021/11/08 13:32:31;;;;;;;20.83;15.15;;;11.80;69.50;;;;;;5034126;28;20044;-57
2021/11/08 13:35:11;;;;;;;20.60;15.20;;;11.90;69.10;;;;;;5034298;28;20044;-58
2021/11/08 13:37:41;;;;;;;22.95;15.80;;;12.00;68.60;;;;;;5034364;28;20032;-50
2021/11/08 13:40:22;;;;;;;20.75;14.27;;;12.00;67.70;;;;;;5033525;28;20033;-52
2021/11/08 13:42:51;;;;;;;21.50;15.90;;;12.00;67.20;;;;;;4999984;28;20037;-53
2021/11/08 13:45:20;;;;;;;21.67;15.60;;;12.10;67.30;;;;;;5034136;28;20037;-55
2021/11/08 13:47:49;;;;;;;20.67;15.32;;;12.10;66.90;;;;;;5031512;28;20033;-58
2021/11/08 13:50:21;;;;;;;20.77;16.27;;;12.00;65.90;;;;;;5033572;28;20037;-59
2021/11/08 13:52:54;;;;;;;20.55;15.20;;;12.10;66.70;;;;;;5033751;28;20470;-53
2021/11/08 13:55:21;;;;;;;23.23;16.65;;;12.10;66.60;;;;;;5032723;28;20034;-56
2021/11/08 13:57:47;;;;;;;21.95;15.80;;;12.10;65.00;;;;;;5032288;28;20385;-55
2021/11/08 14:00:18;;;;;;;26.80;16.88;;;12.10;64.20;;;;;;5031784;28;20473;-55
2021/11/08 14:02:45;;;;;;;24.13;15.43;;;12.20;63.50;;;;;;5016242;28;20381;-57
2021/11/08 14:05:12;;;;;;;21.80;14.23;;;12.20;62.80;;;;;;5034107;28;20037;-55
2021/11/08 14:07:39;;;;;;;28.63;18.58;;;12.10;63.30;;;;;;5033866;28;20041;-54
2021/11/08 14:10:10;;;;;;;25.67;17.60;;;12.10;65.40;;;;;;5033194;28;20401;-54
2021/11/08 14:12:38;;;;;;;23.58;18.40;;;12.00;65.70;;;;;;5033098;28;20057;-56
2021/11/08 14:15:07;;;;;;;23.27;16.17;;;11.90;66.00;;;;;;5033288;28;20033;-53
2021/11/08 14:17:39;;;;;;;22.65;15.27;;;11.90;65.80;;;;;;5033354;28;20048;-53
2021/11/08 14:20:10;;;;;;;20.60;15.18;;;11.80;64.80;;;;;;5032071;28;20030;-53
2021/11/08 14:22:39;;;;;;;20.70;14.32;;;11.80;64.70;;;;;;5033542;28;20069;-49
2021/11/08 14:25:10;;;;;;;20.63;16.23;;;11.80;65.20;;;;;;5031930;28;20040;-57
2021/11/08 14:27:40;;;;;;;22.15;15.57;;;11.80;65.30;;;;;;5014853;28;20405;-54
2021/11/08 14:30:20;;;;;;;23.73;16.58;;;11.70;65.50;;;;;;5032230;28;20037;-51
2021/11/08 14:32:50;;;;;;;23.75;16.58;;;11.70;65.80;;;;;;5032420;28;20040;-50